sensor_id;sensor_type;location;lat;lon;timestamp;P1;durP1;ratioP1;P2;durP2;ratioP2
11837;SDS011;5978;51.020;6.764;2022-08-14T00:00:22;8.03;;;7.13;;
11837;SDS011;5978;51.020;6.764;2022-08-14T00:02:47;7.97;;;7.20;;
11837;SDS011;5978;51.020;6.764;2022-08-14T00:05:16;8.73;;;7.93;;
11837;SDS011;5978;51.020;6.764;2022-08-14T00:07:43;7.87;;;7.17;;
11837;SDS011;5978;51.020;6.764;2022-08-14T00:10:11;8.50;;;7.60;;
11837;SDS011;5978;51.020;6.764;2022-08-14T00:12:39;8.33;;;7.30;;
11837;SDS011;5978;51.020;6.764;2022-08-14T00:15:10;8.60;;;7.80;;
11837;SDS011;5978;51.020;6.764;2022-08-14T00:17:38;8.23;;;7.43;;
11837;SDS011;5978;51.020;6.764;2022-08-14T00:20:05;9.50;;;7.00;;
11837;SDS011;5978;51.020;6.764;2022-08-14T00:22:32;7.63;;;6.77;;
11837;SDS011;5978;51.020;6.764;2022-08-14T00:24:59;12.20;;;6.80;;
11837;SDS011;5978;51.020;6.764;2022-08-14T00:27:24;7.87;;;6.93;;
11837;SDS011;5978;51.020;6.764;2022-08-14T00:29:50;7.00;;;6.40;;
11837;SDS011;5978;51.020;6.764;2022-08-14T00:32:16;7.70;;;7.00;;
11837;SDS011;5978;51.020;6.764;2022-08-14T00:34:41;8.80;;;6.47;;
11837;SDS011;5978;51.020;6.764;2022-08-14T00:37:07;6.57;;;5.87;;
11837;SDS011;5978;51.020;6.764;2022-08-14T00:39:33;8.73;;;7.20;;
11837;SDS011;5978;51.020;6.764;2022-08-14T00:41:58;7.47;;;6.90;;
11837;SDS011;5978;51.020;6.764;2022-08-14T00:44:24;7.77;;;6.97;;
11837;SDS011;5978;51.020;6.764;2022-08-14T00:46:50;7.10;;;6.40;;
11837;SDS011;5978;51.020;6.764;2022-08-14T00:49:15;7.30;;;6.50;;
11837;SDS011;5978;51.020;6.764;2022-08-14T00:51:42;8.80;;;6.70;;
11837;SDS011;5978;51.020;6.764;2022-08-14T00:54:09;7.93;;;7.23;;
11837;SDS011;5978;51.020;6.764;2022-08-14T00:56:36;6.90;;;6.40;;
11837;SDS011;5978;51.020;6.764;2022-08-14T00:59:03;9.13;;;6.70;;
11837;SDS011;5978;51.020;6.764;2022-08-14T01:01:28;7.07;;;6.03;;
11837;SDS011;5978;51.020;6.764;2022-08-14T01:03:57;7.13;;;6.53;;
11837;SDS011;5978;51.020;6.764;2022-08-14T01:06:27;7.37;;;6.77;;
11837;SDS011;5978;51.020;6.764;2022-08-14T01:08:56;9.33;;;6.10;;
11837;SDS011;5978;51.020;6.764;2022-08-14T01:11:23;7.10;;;6.40;;
11837;SDS011;5978;51.020;6.764;2022-08-14T01:13:49;6.77;;;6.27;;
11837;SDS011;5978;51.020;6.764;2022-08-14T01:16:16;8.17;;;7.57;;
11837;SDS011;5978;51.020;6.764;2022-08-14T01:22:06;6.60;;;6.07;;
11837;SDS011;5978;51.020;6.764;2022-08-14T01:24:32;7.03;;;6.43;;
11837;SDS011;5978;51.020;6.764;2022-08-14T01:27:16;10.10;;;6.90;;
11837;SDS011;5978;51.020;6.764;2022-08-14T01:29:45;7.87;;;7.07;;
11837;SDS011;5978;51.020;6.764;2022-08-14T01:32:12;7.20;;;6.60;;
11837;SDS011;5978;51.020;6.764;2022-08-14T01:34:38;9.47;;;7.40;;
11837;SDS011;5978;51.020;6.764;2022-08-14T01:37:19;6.70;;;6.20;;
11837;SDS011;5978;51.020;6.764;2022-08-14T01:39:52;10.47;;;7.17;;
11837;SDS011;5978;51.020;6.764;2022-08-14T01:42:18;7.07;;;6.30;;
11837;SDS011;5978;51.020;6.764;2022-08-14T01:44:46;7.87;;;7.07;;
11837;SDS011;5978;51.020;6.764;2022-08-14T01:47:15;7.73;;;6.57;;
11837;SDS011;5978;51.020;6.764;2022-08-14T01:49:42;15.87;;;7.13;;
11837;SDS011;5978;51.020;6.764;2022-08-14T01:52:09;7.23;;;6.53;;
11837;SDS011;5978;51.020;6.764;2022-08-14T01:54:37;7.00;;;6.37;;
11837;SDS011;5978;51.020;6.764;2022-08-14T01:57:03;6.90;;;6.40;;
11837;SDS011;5978;51.020;6.764;2022-08-14T01:59:30;7.60;;;6.90;;
11837;SDS011;5978;51.020;6.764;2022-08-14T02:02:00;7.83;;;7.13;;
11837;SDS011;5978;51.020;6.764;2022-08-14T02:04:33;7.70;;;7.10;;
11837;SDS011;5978;51.020;6.764;2022-08-14T02:07:00;8.03;;;7.33;;
11837;SDS011;5978;51.020;6.764;2022-08-14T02:09:27;12.53;;;8.43;;
11837;SDS011;5978;51.020;6.764;2022-08-14T02:11:55;8.40;;;7.80;;
11837;SDS011;5978;51.020;6.764;2022-08-14T02:14:20;9.07;;;7.50;;
11837;SDS011;5978;51.020;6.764;2022-08-14T02:16:48;8.73;;;7.87;;
11837;SDS011;5978;51.020;6.764;2022-08-14T02:19:18;8.87;;;8.10;;
11837;SDS011;5978;51.020;6.764;2022-08-14T02:21:46;11.30;;;8.03;;
11837;SDS011;5978;51.020;6.764;2022-08-14T02:24:14;9.07;;;8.10;;
11837;SDS011;5978;51.020;6.764;2022-08-14T02:26:42;8.40;;;7.70;;
11837;SDS011;5978;51.020;6.764;2022-08-14T02:29:12;10.00;;;8.00;;
11837;SDS011;5978;51.020;6.764;2022-08-14T02:31:42;9.00;;;7.63;;
11837;SDS011;5978;51.020;6.764;2022-08-14T02:34:17;9.40;;;8.47;;
11837;SDS011;5978;51.020;6.764;2022-08-14T02:36:45;10.23;;;8.03;;
11837;SDS011;5978;51.020;6.764;2022-08-14T02:39:13;9.30;;;8.50;;
11837;SDS011;5978;51.020;6.764;2022-08-14T02:41:40;9.60;;;8.33;;
11837;SDS011;5978;51.020;6.764;2022-08-14T02:44:07;8.77;;;8.07;;
11837;SDS011;5978;51.020;6.764;2022-08-14T02:46:34;10.33;;;9.10;;
11837;SDS011;5978;51.020;6.764;2022-08-14T02:49:02;11.80;;;8.30;;
11837;SDS011;5978;51.020;6.764;2022-08-14T02:51:28;9.63;;;8.73;;
11837;SDS011;5978;51.020;6.764;2022-08-14T02:53:54;9.90;;;9.10;;
11837;SDS011;5978;51.020;6.764;2022-08-14T02:56:20;9.70;;;8.40;;
11837;SDS011;5978;51.020;6.764;2022-08-14T02:58:47;11.23;;;9.50;;
11837;SDS011;5978;51.020;6.764;2022-08-14T03:01:15;9.00;;;8.20;;
11837;SDS011;5978;51.020;6.764;2022-08-14T03:03:42;9.57;;;8.77;;
11837;SDS011;5978;51.020;6.764;2022-08-14T03:06:09;11.10;;;8.70;;
11837;SDS011;5978;51.020;6.764;2022-08-14T03:08:36;11.30;;;7.23;;
11837;SDS011;5978;51.020;6.764;2022-08-14T03:11:04;9.23;;;8.33;;
11837;SDS011;5978;51.020;6.764;2022-08-14T03:13:37;8.20;;;7.40;;
11837;SDS011;5978;51.020;6.764;2022-08-14T03:16:07;8.97;;;8.10;;
11837;SDS011;5978;51.020;6.764;2022-08-14T03:18:36;9.13;;;8.33;;
11837;SDS011;5978;51.020;6.764;2022-08-14T03:21:06;8.53;;;7.70;;
11837;SDS011;5978;51.020;6.764;2022-08-14T03:23:32;7.87;;;7.17;;
11837;SDS011;5978;51.020;6.764;2022-08-14T03:28:51;9.00;;;8.27;;
11837;SDS011;5978;51.020;6.764;2022-08-14T03:31:17;9.20;;;8.37;;
11837;SDS011;5978;51.020;6.764;2022-08-14T03:33:46;9.37;;;8.47;;
11837;SDS011;5978;51.020;6.764;2022-08-14T03:36:19;16.63;;;8.80;;
11837;SDS011;5978;51.020;6.764;2022-08-14T03:38:46;8.77;;;7.97;;
11837;SDS011;5978;51.020;6.764;2022-08-14T03:41:15;8.60;;;7.70;;
11837;SDS011;5978;51.020;6.764;2022-08-14T03:43:49;9.93;;;8.97;;
11837;SDS011;5978;51.020;6.764;2022-08-14T03:46:20;8.70;;;7.90;;
11837;SDS011;5978;51.020;6.764;2022-08-14T03:48:47;9.53;;;7.60;;
11837;SDS011;5978;51.020;6.764;2022-08-14T03:51:13;8.40;;;7.70;;
11837;SDS011;5978;51.020;6.764;2022-08-14T03:53:41;9.40;;;8.60;;
11837;SDS011;5978;51.020;6.764;2022-08-14T03:56:09;9.60;;;7.70;;
11837;SDS011;5978;51.020;6.764;2022-08-14T03:58:42;8.67;;;7.97;;
11837;SDS011;5978;51.020;6.764;2022-08-14T04:01:17;8.63;;;7.60;;
11837;SDS011;5978;51.020;6.764;2022-08-14T04:03:45;8.63;;;7.87;;
11837;SDS011;5978;51.020;6.764;2022-08-14T04:06:12;10.37;;;9.43;;
11837;SDS011;5978;51.020;6.764;2022-08-14T04:08:38;9.80;;;8.93;;
11837;SDS011;5978;51.020;6.764;2022-08-14T04:11:05;9.73;;;8.83;;
11837;SDS011;5978;51.020;6.764;2022-08-14T04:13:32;12.83;;;9.70;;
11837;SDS011;5978;51.020;6.764;2022-08-14T04:16:03;9.43;;;8.53;;
11837;SDS011;5978;51.020;6.764;2022-08-14T04:18:30;9.63;;;8.63;;
11837;SDS011;5978;51.020;6.764;2022-08-14T04:20:57;10.60;;;9.73;;
11837;SDS011;5978;51.020;6.764;2022-08-14T04:23:41;8.70;;;8.00;;
11837;SDS011;5978;51.020;6.764;2022-08-14T04:26:09;10.70;;;9.70;;
11837;SDS011;5978;51.020;6.764;2022-08-14T04:28:37;12.80;;;10.93;;
11837;SDS011;5978;51.020;6.764;2022-08-14T04:31:04;10.87;;;9.83;;
11837;SDS011;5978;51.020;6.764;2022-08-14T04:33:31;9.73;;;8.93;;
11837;SDS011;5978;51.020;6.764;2022-08-14T04:35:57;11.40;;;9.50;;
11837;SDS011;5978;51.020;6.764;2022-08-14T04:38:23;10.77;;;9.40;;
11837;SDS011;5978;51.020;6.764;2022-08-14T04:41:07;9.63;;;8.70;;
11837;SDS011;5978;51.020;6.764;2022-08-14T04:43:55;12.23;;;10.93;;
11837;SDS011;5978;51.020;6.764;2022-08-14T04:46:21;10.00;;;9.10;;
11837;SDS011;5978;51.020;6.764;2022-08-14T04:48:48;13.20;;;9.50;;
11837;SDS011;5978;51.020;6.764;2022-08-14T04:51:16;10.90;;;9.73;;
11837;SDS011;5978;51.020;6.764;2022-08-14T04:53:44;10.30;;;9.30;;
11837;SDS011;5978;51.020;6.764;2022-08-14T04:56:12;10.17;;;9.17;;
11837;SDS011;5978;51.020;6.764;2022-08-14T04:58:39;10.30;;;9.40;;
11837;SDS011;5978;51.020;6.764;2022-08-14T05:01:09;11.10;;;10.00;;
11837;SDS011;5978;51.020;6.764;2022-08-14T05:03:37;10.90;;;10.00;;
11837;SDS011;5978;51.020;6.764;2022-08-14T05:06:04;10.50;;;9.47;;
11837;SDS011;5978;51.020;6.764;2022-08-14T05:08:32;10.37;;;9.47;;
11837;SDS011;5978;51.020;6.764;2022-08-14T05:11:00;10.00;;;9.00;;
11837;SDS011;5978;51.020;6.764;2022-08-14T05:13:28;9.20;;;8.40;;
11837;SDS011;5978;51.020;6.764;2022-08-14T05:15:55;13.03;;;9.20;;
11837;SDS011;5978;51.020;6.764;2022-08-14T05:18:43;10.27;;;9.27;;
11837;SDS011;5978;51.020;6.764;2022-08-14T05:21:10;11.43;;;10.43;;
11837;SDS011;5978;51.020;6.764;2022-08-14T05:23:42;10.77;;;9.73;;
11837;SDS011;5978;51.020;6.764;2022-08-14T05:26:08;10.73;;;9.63;;
11837;SDS011;5978;51.020;6.764;2022-08-14T05:28:38;10.90;;;9.90;;
11837;SDS011;5978;51.020;6.764;2022-08-14T05:31:08;14.00;;;9.67;;
11837;SDS011;5978;51.020;6.764;2022-08-14T05:33:35;11.47;;;9.40;;
11837;SDS011;5978;51.020;6.764;2022-08-14T05:36:02;15.60;;;10.90;;
11837;SDS011;5978;51.020;6.764;2022-08-14T05:38:44;12.60;;;11.20;;
11837;SDS011;5978;51.020;6.764;2022-08-14T05:41:12;10.60;;;9.70;;
11837;SDS011;5978;51.020;6.764;2022-08-14T05:43:43;11.33;;;10.13;;
11837;SDS011;5978;51.020;6.764;2022-08-14T05:46:11;11.87;;;10.37;;
11837;SDS011;5978;51.020;6.764;2022-08-14T05:48:39;10.60;;;9.50;;
11837;SDS011;5978;51.020;6.764;2022-08-14T05:51:04;12.00;;;10.80;;
11837;SDS011;5978;51.020;6.764;2022-08-14T05:53:30;11.00;;;10.10;;
11837;SDS011;5978;51.020;6.764;2022-08-14T05:55:56;11.83;;;10.83;;
11837;SDS011;5978;51.020;6.764;2022-08-14T05:58:23;11.33;;;10.23;;
11837;SDS011;5978;51.020;6.764;2022-08-14T06:00:49;13.23;;;11.93;;
11837;SDS011;5978;51.020;6.764;2022-08-14T06:03:16;12.00;;;10.67;;
11837;SDS011;5978;51.020;6.764;2022-08-14T06:05:44;15.73;;;11.70;;
11837;SDS011;5978;51.020;6.764;2022-08-14T06:10:44;13.00;;;10.53;;
11837;SDS011;5978;51.020;6.764;2022-08-14T06:13:11;15.03;;;12.40;;
11837;SDS011;5978;51.020;6.764;2022-08-14T06:15:37;16.70;;;11.20;;
11837;SDS011;5978;51.020;6.764;2022-08-14T06:18:03;22.10;;;12.30;;
11837;SDS011;5978;51.020;6.764;2022-08-14T06:20:29;12.50;;;11.40;;
11837;SDS011;5978;51.020;6.764;2022-08-14T06:22:55;12.50;;;11.30;;
11837;SDS011;5978;51.020;6.764;2022-08-14T06:25:20;12.67;;;11.57;;
11837;SDS011;5978;51.020;6.764;2022-08-14T06:27:46;12.77;;;11.50;;
11837;SDS011;5978;51.020;6.764;2022-08-14T06:30:18;14.10;;;12.93;;
11837;SDS011;5978;51.020;6.764;2022-08-14T06:32:46;11.27;;;10.23;;
11837;SDS011;5978;51.020;6.764;2022-08-14T06:35:12;11.03;;;10.07;;
11837;SDS011;5978;51.020;6.764;2022-08-14T06:37:39;11.97;;;10.77;;
11837;SDS011;5978;51.020;6.764;2022-08-14T06:40:09;11.90;;;10.73;;
11837;SDS011;5978;51.020;6.764;2022-08-14T06:42:36;10.43;;;9.53;;
11837;SDS011;5978;51.020;6.764;2022-08-14T06:48:16;11.77;;;9.87;;
11837;SDS011;5978;51.020;6.764;2022-08-14T06:50:44;12.33;;;10.67;;
11837;SDS011;5978;51.020;6.764;2022-08-14T06:53:10;12.37;;;11.20;;
11837;SDS011;5978;51.020;6.764;2022-08-14T06:55:38;10.63;;;9.73;;
11837;SDS011;5978;51.020;6.764;2022-08-14T06:58:09;10.57;;;9.67;;
11837;SDS011;5978;51.020;6.764;2022-08-14T07:00:36;12.70;;;11.17;;
11837;SDS011;5978;51.020;6.764;2022-08-14T07:03:01;12.33;;;10.60;;
11837;SDS011;5978;51.020;6.764;2022-08-14T07:05:45;11.00;;;9.93;;
11837;SDS011;5978;51.020;6.764;2022-08-14T07:08:15;11.40;;;10.40;;
11837;SDS011;5978;51.020;6.764;2022-08-14T07:10:51;11.00;;;10.00;;
11837;SDS011;5978;51.020;6.764;2022-08-14T07:13:19;11.50;;;10.50;;
11837;SDS011;5978;51.020;6.764;2022-08-14T07:15:49;10.60;;;9.70;;
11837;SDS011;5978;51.020;6.764;2022-08-14T07:18:22;10.97;;;9.90;;
11837;SDS011;5978;51.020;6.764;2022-08-14T07:20:50;10.60;;;9.60;;
11837;SDS011;5978;51.020;6.764;2022-08-14T07:23:17;13.07;;;11.97;;
11837;SDS011;5978;51.020;6.764;2022-08-14T07:25:43;11.53;;;10.43;;
11837;SDS011;5978;51.020;6.764;2022-08-14T07:28:10;10.60;;;9.60;;
11837;SDS011;5978;51.020;6.764;2022-08-14T07:30:37;12.70;;;10.73;;
11837;SDS011;5978;51.020;6.764;2022-08-14T07:33:03;10.57;;;9.67;;
11837;SDS011;5978;51.020;6.764;2022-08-14T07:35:30;12.83;;;9.27;;
11837;SDS011;5978;51.020;6.764;2022-08-14T07:37:56;12.93;;;10.40;;
11837;SDS011;5978;51.020;6.764;2022-08-14T07:40:21;12.40;;;11.23;;
11837;SDS011;5978;51.020;6.764;2022-08-14T07:42:47;11.60;;;10.50;;
11837;SDS011;5978;51.020;6.764;2022-08-14T07:45:12;10.80;;;9.90;;
11837;SDS011;5978;51.020;6.764;2022-08-14T07:47:41;11.03;;;10.03;;
11837;SDS011;5978;51.020;6.764;2022-08-14T07:50:11;11.33;;;10.33;;
11837;SDS011;5978;51.020;6.764;2022-08-14T07:52:41;10.80;;;9.70;;
11837;SDS011;5978;51.020;6.764;2022-08-14T07:55:09;11.43;;;10.53;;
11837;SDS011;5978;51.020;6.764;2022-08-14T07:57:35;11.00;;;9.83;;
11837;SDS011;5978;51.020;6.764;2022-08-14T08:00:04;12.20;;;11.20;;
11837;SDS011;5978;51.020;6.764;2022-08-14T08:02:35;11.33;;;9.30;;
11837;SDS011;5978;51.020;6.764;2022-08-14T08:05:05;11.40;;;10.33;;
11837;SDS011;5978;51.020;6.764;2022-08-14T08:07:32;12.07;;;11.00;;
11837;SDS011;5978;51.020;6.764;2022-08-14T08:09:59;11.40;;;10.40;;
11837;SDS011;5978;51.020;6.764;2022-08-14T08:12:49;11.77;;;10.63;;
11837;SDS011;5978;51.020;6.764;2022-08-14T08:15:17;10.70;;;9.70;;
11837;SDS011;5978;51.020;6.764;2022-08-14T08:17:43;11.53;;;10.43;;
11837;SDS011;5978;51.020;6.764;2022-08-14T08:20:14;12.53;;;9.50;;
11837;SDS011;5978;51.020;6.764;2022-08-14T08:22:41;10.57;;;9.77;;
11837;SDS011;5978;51.020;6.764;2022-08-14T08:25:07;11.00;;;10.10;;
11837;SDS011;5978;51.020;6.764;2022-08-14T08:27:33;11.60;;;10.03;;
11837;SDS011;5978;51.020;6.764;2022-08-14T08:30:06;10.47;;;9.50;;
11837;SDS011;5978;51.020;6.764;2022-08-14T08:32:52;9.60;;;8.80;;
11837;SDS011;5978;51.020;6.764;2022-08-14T08:35:20;11.07;;;10.17;;
11837;SDS011;5978;51.020;6.764;2022-08-14T08:37:50;11.60;;;10.50;;
11837;SDS011;5978;51.020;6.764;2022-08-14T08:40:25;11.03;;;10.03;;
11837;SDS011;5978;51.020;6.764;2022-08-14T08:42:54;10.33;;;9.37;;
11837;SDS011;5978;51.020;6.764;2022-08-14T08:45:20;11.00;;;10.10;;
11837;SDS011;5978;51.020;6.764;2022-08-14T08:47:46;10.70;;;9.70;;
11837;SDS011;5978;51.020;6.764;2022-08-14T08:50:21;11.70;;;9.00;;
11837;SDS011;5978;51.020;6.764;2022-08-14T08:52:53;9.70;;;9.00;;
11837;SDS011;5978;51.020;6.764;2022-08-14T08:55:31;10.27;;;9.40;;
11837;SDS011;5978;51.020;6.764;2022-08-14T08:58:04;8.93;;;8.13;;
11837;SDS011;5978;51.020;6.764;2022-08-14T09:00:32;9.73;;;9.03;;
11837;SDS011;5978;51.020;6.764;2022-08-14T09:03:01;11.00;;;10.10;;
11837;SDS011;5978;51.020;6.764;2022-08-14T09:05:31;10.23;;;9.40;;
11837;SDS011;5978;51.020;6.764;2022-08-14T09:10:58;10.20;;;9.30;;
11837;SDS011;5978;51.020;6.764;2022-08-14T09:13:29;9.43;;;8.60;;
11837;SDS011;5978;51.020;6.764;2022-08-14T09:15:55;10.63;;;9.83;;
11837;SDS011;5978;51.020;6.764;2022-08-14T09:18:21;10.83;;;9.47;;
11837;SDS011;5978;51.020;6.764;2022-08-14T09:20:49;11.40;;;10.07;;
11837;SDS011;5978;51.020;6.764;2022-08-14T09:23:16;9.77;;;8.87;;
11837;SDS011;5978;51.020;6.764;2022-08-14T09:25:42;10.47;;;9.20;;
11837;SDS011;5978;51.020;6.764;2022-08-14T09:28:12;9.23;;;8.53;;
11837;SDS011;5978;51.020;6.764;2022-08-14T09:30:43;10.03;;;9.33;;
11837;SDS011;5978;51.020;6.764;2022-08-14T09:35:55;10.60;;;8.60;;
11837;SDS011;5978;51.020;6.764;2022-08-14T09:43:50;7.93;;;7.23;;
11837;SDS011;5978;51.020;6.764;2022-08-14T09:46:23;7.93;;;7.33;;
11837;SDS011;5978;51.020;6.764;2022-08-14T09:49:01;8.50;;;7.83;;
11837;SDS011;5978;51.020;6.764;2022-08-14T09:51:29;7.27;;;6.67;;
11837;SDS011;5978;51.020;6.764;2022-08-14T09:54:05;8.07;;;7.57;;
11837;SDS011;5978;51.020;6.764;2022-08-14T09:56:46;8.77;;;6.80;;
11837;SDS011;5978;51.020;6.764;2022-08-14T09:59:14;7.50;;;6.90;;
11837;SDS011;5978;51.020;6.764;2022-08-14T10:01:46;11.60;;;7.17;;
11837;SDS011;5978;51.020;6.764;2022-08-14T10:04:25;6.43;;;5.60;;
11837;SDS011;5978;51.020;6.764;2022-08-14T10:06:52;7.13;;;6.63;;
11837;SDS011;5978;51.020;6.764;2022-08-14T10:09:19;6.87;;;6.43;;
11837;SDS011;5978;51.020;6.764;2022-08-14T10:11:57;7.50;;;6.80;;
11837;SDS011;5978;51.020;6.764;2022-08-14T10:14:24;6.90;;;6.37;;
11837;SDS011;5978;51.020;6.764;2022-08-14T10:16:55;8.00;;;7.20;;
11837;SDS011;5978;51.020;6.764;2022-08-14T10:19:22;8.40;;;6.30;;
11837;SDS011;5978;51.020;6.764;2022-08-14T10:22:02;5.80;;;5.50;;
11837;SDS011;5978;51.020;6.764;2022-08-14T10:24:38;14.57;;;5.87;;
11837;SDS011;5978;51.020;6.764;2022-08-14T10:27:22;6.60;;;6.10;;
11837;SDS011;5978;51.020;6.764;2022-08-14T10:29:50;6.47;;;6.07;;
11837;SDS011;5978;51.020;6.764;2022-08-14T10:32:20;6.67;;;6.07;;
11837;SDS011;5978;51.020;6.764;2022-08-14T10:34:46;6.10;;;5.60;;
11837;SDS011;5978;51.020;6.764;2022-08-14T10:37:14;8.10;;;6.87;;
11837;SDS011;5978;51.020;6.764;2022-08-14T10:39:42;7.20;;;6.70;;
11837;SDS011;5978;51.020;6.764;2022-08-14T10:42:13;6.73;;;6.23;;
11837;SDS011;5978;51.020;6.764;2022-08-14T10:44:40;6.70;;;6.10;;
11837;SDS011;5978;51.020;6.764;2022-08-14T10:47:10;7.50;;;6.90;;
11837;SDS011;5978;51.020;6.764;2022-08-14T10:49:38;6.80;;;5.80;;
11837;SDS011;5978;51.020;6.764;2022-08-14T10:52:18;7.77;;;7.17;;
11837;SDS011;5978;51.020;6.764;2022-08-14T10:54:46;7.27;;;6.67;;
11837;SDS011;5978;51.020;6.764;2022-08-14T10:59:58;6.60;;;6.10;;
11837;SDS011;5978;51.020;6.764;2022-08-14T11:02:35;6.57;;;6.07;;
11837;SDS011;5978;51.020;6.764;2022-08-14T11:07:53;5.80;;;5.40;;
11837;SDS011;5978;51.020;6.764;2022-08-14T11:10:19;6.20;;;5.70;;
11837;SDS011;5978;51.020;6.764;2022-08-14T11:12:48;5.30;;;4.90;;
11837;SDS011;5978;51.020;6.764;2022-08-14T11:15:17;5.37;;;4.87;;
11837;SDS011;5978;51.020;6.764;2022-08-14T11:17:47;7.23;;;4.30;;
11837;SDS011;5978;51.020;6.764;2022-08-14T11:20:15;5.90;;;5.50;;
11837;SDS011;5978;51.020;6.764;2022-08-14T11:22:43;6.60;;;6.10;;
11837;SDS011;5978;51.020;6.764;2022-08-14T11:25:11;5.93;;;5.37;;
11837;SDS011;5978;51.020;6.764;2022-08-14T11:27:39;5.97;;;5.50;;
11837;SDS011;5978;51.020;6.764;2022-08-14T11:30:08;6.27;;;5.77;;
11837;SDS011;5978;51.020;6.764;2022-08-14T11:32:40;5.10;;;4.80;;
11837;SDS011;5978;51.020;6.764;2022-08-14T11:35:12;5.80;;;5.30;;
11837;SDS011;5978;51.020;6.764;2022-08-14T11:37:49;5.97;;;5.37;;
11837;SDS011;5978;51.020;6.764;2022-08-14T11:40:15;5.00;;;4.50;;
11837;SDS011;5978;51.020;6.764;2022-08-14T11:42:44;5.67;;;5.20;;
11837;SDS011;5978;51.020;6.764;2022-08-14T11:45:11;4.80;;;4.50;;
11837;SDS011;5978;51.020;6.764;2022-08-14T11:47:37;4.67;;;3.90;;
11837;SDS011;5978;51.020;6.764;2022-08-14T11:50:16;6.53;;;4.93;;
11837;SDS011;5978;51.020;6.764;2022-08-14T11:52:44;8.90;;;5.63;;
11837;SDS011;5978;51.020;6.764;2022-08-14T11:55:12;5.10;;;4.80;;
11837;SDS011;5978;51.020;6.764;2022-08-14T11:57:40;5.77;;;5.27;;
11837;SDS011;5978;51.020;6.764;2022-08-14T12:00:07;6.00;;;5.50;;
11837;SDS011;5978;51.020;6.764;2022-08-14T12:02:36;7.07;;;6.37;;
11837;SDS011;5978;51.020;6.764;2022-08-14T12:05:13;6.20;;;5.17;;
11837;SDS011;5978;51.020;6.764;2022-08-14T12:07:48;5.60;;;5.20;;
11837;SDS011;5978;51.020;6.764;2022-08-14T12:10:16;5.87;;;5.47;;
11837;SDS011;5978;51.020;6.764;2022-08-14T12:12:43;5.57;;;5.20;;
11837;SDS011;5978;51.020;6.764;2022-08-14T12:15:09;5.10;;;4.73;;
11837;SDS011;5978;51.020;6.764;2022-08-14T12:17:45;5.20;;;4.80;;
11837;SDS011;5978;51.020;6.764;2022-08-14T12:20:17;4.13;;;3.83;;
11837;SDS011;5978;51.020;6.764;2022-08-14T12:22:43;4.60;;;4.23;;
11837;SDS011;5978;51.020;6.764;2022-08-14T12:25:10;4.90;;;4.60;;
11837;SDS011;5978;51.020;6.764;2022-08-14T12:27:42;5.50;;;5.10;;
11837;SDS011;5978;51.020;6.764;2022-08-14T12:30:29;4.80;;;4.50;;
11837;SDS011;5978;51.020;6.764;2022-08-14T12:33:02;6.30;;;4.47;;
11837;SDS011;5978;51.020;6.764;2022-08-14T12:35:42;4.80;;;4.50;;
11837;SDS011;5978;51.020;6.764;2022-08-14T12:38:14;4.37;;;4.07;;
11837;SDS011;5978;51.020;6.764;2022-08-14T12:40:51;4.13;;;3.93;;
11837;SDS011;5978;51.020;6.764;2022-08-14T12:43:17;3.93;;;3.70;;
11837;SDS011;5978;51.020;6.764;2022-08-14T12:45:49;3.83;;;3.63;;
11837;SDS011;5978;51.020;6.764;2022-08-14T12:48:18;5.03;;;4.67;;
11837;SDS011;5978;51.020;6.764;2022-08-14T12:50:44;4.70;;;4.40;;
11837;SDS011;5978;51.020;6.764;2022-08-14T12:53:11;4.30;;;4.00;;
11837;SDS011;5978;51.020;6.764;2022-08-14T12:55:38;4.50;;;4.20;;
11837;SDS011;5978;51.020;6.764;2022-08-14T12:58:11;5.03;;;4.40;;
11837;SDS011;5978;51.020;6.764;2022-08-14T13:00:46;4.97;;;4.57;;
11837;SDS011;5978;51.020;6.764;2022-08-14T13:03:24;4.10;;;3.90;;
11837;SDS011;5978;51.020;6.764;2022-08-14T13:05:51;8.07;;;3.83;;
11837;SDS011;5978;51.020;6.764;2022-08-14T13:08:17;4.47;;;4.17;;
11837;SDS011;5978;51.020;6.764;2022-08-14T13:10:43;4.20;;;3.93;;
11837;SDS011;5978;51.020;6.764;2022-08-14T13:13:11;3.97;;;3.67;;
11837;SDS011;5978;51.020;6.764;2022-08-14T13:15:44;4.47;;;4.27;;
11837;SDS011;5978;51.020;6.764;2022-08-14T13:18:13;4.17;;;3.90;;
11837;SDS011;5978;51.020;6.764;2022-08-14T13:20:39;4.30;;;4.03;;
11837;SDS011;5978;51.020;6.764;2022-08-14T13:23:06;4.53;;;4.13;;
11837;SDS011;5978;51.020;6.764;2022-08-14T13:25:33;4.90;;;4.50;;
11837;SDS011;5978;51.020;6.764;2022-08-14T13:28:04;4.63;;;4.30;;
11837;SDS011;5978;51.020;6.764;2022-08-14T13:30:31;4.80;;;4.50;;
11837;SDS011;5978;51.020;6.764;2022-08-14T13:32:57;5.33;;;5.00;;
11837;SDS011;5978;51.020;6.764;2022-08-14T13:35:24;4.53;;;4.23;;
11837;SDS011;5978;51.020;6.764;2022-08-14T13:37:50;4.60;;;4.30;;
11837;SDS011;5978;51.020;6.764;2022-08-14T13:40:17;4.90;;;4.50;;
11837;SDS011;5978;51.020;6.764;2022-08-14T13:42:45;5.30;;;4.80;;
11837;SDS011;5978;51.020;6.764;2022-08-14T13:45:12;5.10;;;4.80;;
11837;SDS011;5978;51.020;6.764;2022-08-14T13:47:41;4.60;;;4.30;;
11837;SDS011;5978;51.020;6.764;2022-08-14T13:50:09;4.63;;;4.33;;
11837;SDS011;5978;51.020;6.764;2022-08-14T13:55:07;4.80;;;4.57;;
11837;SDS011;5978;51.020;6.764;2022-08-14T13:57:34;4.60;;;4.40;;
11837;SDS011;5978;51.020;6.764;2022-08-14T14:00:07;5.23;;;4.83;;
11837;SDS011;5978;51.020;6.764;2022-08-14T14:02:37;5.40;;;4.67;;
11837;SDS011;5978;51.020;6.764;2022-08-14T14:05:04;4.87;;;4.47;;
11837;SDS011;5978;51.020;6.764;2022-08-14T14:07:32;5.10;;;4.80;;
11837;SDS011;5978;51.020;6.764;2022-08-14T14:10:00;4.80;;;4.50;;
11837;SDS011;5978;51.020;6.764;2022-08-14T14:12:27;4.83;;;4.53;;
11837;SDS011;5978;51.020;6.764;2022-08-14T14:14:54;4.60;;;4.30;;
11837;SDS011;5978;51.020;6.764;2022-08-14T14:17:20;4.03;;;3.83;;
11837;SDS011;5978;51.020;6.764;2022-08-14T14:19:49;4.77;;;4.37;;
11837;SDS011;5978;51.020;6.764;2022-08-14T14:22:16;4.63;;;4.27;;
11837;SDS011;5978;51.020;6.764;2022-08-14T14:24:42;5.37;;;4.73;;
11837;SDS011;5978;51.020;6.764;2022-08-14T14:27:11;5.43;;;4.30;;
11837;SDS011;5978;51.020;6.764;2022-08-14T14:29:43;4.73;;;4.43;;
11837;SDS011;5978;51.020;6.764;2022-08-14T14:32:10;5.37;;;5.00;;
11837;SDS011;5978;51.020;6.764;2022-08-14T14:34:37;5.30;;;4.90;;
11837;SDS011;5978;51.020;6.764;2022-08-14T14:37:05;4.93;;;4.60;;
11837;SDS011;5978;51.020;6.764;2022-08-14T14:39:35;5.53;;;5.13;;
11837;SDS011;5978;51.020;6.764;2022-08-14T14:42:01;5.17;;;4.77;;
11837;SDS011;5978;51.020;6.764;2022-08-14T14:44:31;4.83;;;4.47;;
11837;SDS011;5978;51.020;6.764;2022-08-14T14:47:04;4.50;;;4.20;;
11837;SDS011;5978;51.020;6.764;2022-08-14T14:49:32;5.30;;;4.90;;
11837;SDS011;5978;51.020;6.764;2022-08-14T14:51:58;5.00;;;4.60;;
11837;SDS011;5978;51.020;6.764;2022-08-14T14:54:24;3.87;;;3.67;;
11837;SDS011;5978;51.020;6.764;2022-08-14T14:56:50;3.73;;;3.53;;
11837;SDS011;5978;51.020;6.764;2022-08-14T14:59:18;3.70;;;3.50;;
11837;SDS011;5978;51.020;6.764;2022-08-14T15:01:46;3.93;;;3.63;;
11837;SDS011;5978;51.020;6.764;2022-08-14T15:04:13;4.93;;;4.60;;
11837;SDS011;5978;51.020;6.764;2022-08-14T15:06:42;5.20;;;4.90;;
11837;SDS011;5978;51.020;6.764;2022-08-14T15:09:09;5.10;;;4.70;;
11837;SDS011;5978;51.020;6.764;2022-08-14T15:11:34;9.00;;;4.67;;
11837;SDS011;5978;51.020;6.764;2022-08-14T15:14:00;5.93;;;5.53;;
11837;SDS011;5978;51.020;6.764;2022-08-14T15:16:26;4.30;;;4.10;;
11837;SDS011;5978;51.020;6.764;2022-08-14T15:18:52;4.13;;;3.93;;
11837;SDS011;5978;51.020;6.764;2022-08-14T15:21:18;7.10;;;5.77;;
11837;SDS011;5978;51.020;6.764;2022-08-14T15:23:43;3.93;;;3.73;;
11837;SDS011;5978;51.020;6.764;2022-08-14T15:26:12;4.73;;;4.43;;
11837;SDS011;5978;51.020;6.764;2022-08-14T15:28:39;4.57;;;4.27;;
11837;SDS011;5978;51.020;6.764;2022-08-14T15:31:06;4.37;;;4.07;;
11837;SDS011;5978;51.020;6.764;2022-08-14T15:33:31;3.93;;;3.73;;
11837;SDS011;5978;51.020;6.764;2022-08-14T15:36:16;4.20;;;4.00;;